createdAt,value
2022-12-31T00:00:38.557Z,98033.75
2022-12-31T00:03:25.366Z,98035.81
2022-12-31T00:05:52.768Z,98040.81
2022-12-31T00:08:20.339Z,98060.09
2022-12-31T00:10:47.686Z,98051.50
2022-12-31T00:13:16.750Z,98056.31
2022-12-31T00:15:45.135Z,98059.25
2022-12-31T00:18:12.808Z,98051.41
2022-12-31T00:20:42.096Z,98059.06
2022-12-31T00:23:11.153Z,98053.97
2022-12-31T00:25:38.537Z,98052.06
2022-12-31T00:28:06.108Z,98053.50
2022-12-31T00:30:34.821Z,98054.63
2022-12-31T00:33:02.502Z,98056.38
2022-12-31T00:35:29.796Z,98061.41
2022-12-31T00:37:57.336Z,98077.19
2022-12-31T00:40:24.581Z,98075.34
2022-12-31T00:42:52.091Z,98078.78
2022-12-31T00:45:19.317Z,98083.03
2022-12-31T00:47:46.871Z,98077.09
2022-12-31T00:50:14.105Z,98081.38
2022-12-31T00:52:41.665Z,98082.19
2022-12-31T00:55:09.218Z,98087.28
2022-12-31T00:57:36.775Z,98088.84
2022-12-31T01:00:07.333Z,98085.19
2022-12-31T01:02:35.026Z,98078.81
2022-12-31T01:05:02.511Z,98087.81
2022-12-31T01:07:30.100Z,98081.13
2022-12-31T01:09:57.379Z,98088.47
2022-12-31T01:12:25.623Z,98082.97
2022-12-31T01:14:52.880Z,98087.38
2022-12-31T01:17:20.393Z,98091.56
2022-12-31T01:19:47.669Z,98084.72
2022-12-31T01:22:15.283Z,98092.13
2022-12-31T01:24:42.518Z,98086.00
2022-12-31T01:27:10.287Z,98087.38
2022-12-31T01:29:37.493Z,98098.13
2022-12-31T01:32:05.412Z,98088.47
2022-12-31T01:34:32.721Z,98069.16
2022-12-31T01:37:00.204Z,98057.44
2022-12-31T01:39:27.442Z,98081.75
2022-12-31T01:41:54.941Z,98091.50
2022-12-31T01:44:25.229Z,98079.44
2022-12-31T01:47:02.302Z,98082.25
2022-12-31T01:49:51.703Z,98084.38
2022-12-31T01:52:38.788Z,98086.84
2022-12-31T01:55:25.465Z,98089.06
2022-12-31T01:57:59.269Z,98085.34
2022-12-31T02:00:27.095Z,98093.13
2022-12-31T02:02:55.172Z,98093.72
2022-12-31T02:06:01.158Z,98104.78
2022-12-31T02:08:28.837Z,98104.53
2022-12-31T02:10:56.113Z,98110.25
2022-12-31T02:13:24.094Z,98104.59
2022-12-31T02:16:13.011Z,98098.47
2022-12-31T02:19:20.159Z,98096.72
2022-12-31T02:22:13.429Z,98079.75
2022-12-31T02:25:16.494Z,98074.06
2022-12-31T02:28:04.454Z,98082.13
2022-12-31T02:30:34.945Z,98079.84
2022-12-31T02:33:22.317Z,98071.75
2022-12-31T02:36:06.163Z,98063.03
2022-12-31T02:38:39.233Z,98057.72
2022-12-31T02:41:33.091Z,98064.38
2022-12-31T02:44:00.415Z,98056.69
2022-12-31T02:46:47.339Z,98055.19
2022-12-31T02:49:38.659Z,98043.63
2022-12-31T02:52:26.737Z,98038.13
2022-12-31T02:55:10.224Z,98039.63
2022-12-31T02:57:55.342Z,98034.75
2022-12-31T03:00:49.353Z,98029.56
2022-12-31T03:03:19.319Z,98033.91
2022-12-31T03:05:50.135Z,98038.66
2022-12-31T03:08:26.293Z,98046.44
2022-12-31T03:10:53.566Z,98062.78
2022-12-31T03:13:21.071Z,98060.84
2022-12-31T03:15:48.585Z,98071.06
2022-12-31T03:18:39.227Z,98081.56
2022-12-31T03:21:31.921Z,98084.66
2022-12-31T03:24:18.187Z,98083.34
2022-12-31T03:26:45.391Z,98073.78
2022-12-31T03:29:12.876Z,98073.81
2022-12-31T03:31:40.211Z,98080.50
2022-12-31T03:34:07.694Z,98075.13
2022-12-31T03:36:34.960Z,98083.75
2022-12-31T03:39:02.509Z,98093.91
2022-12-31T03:41:29.713Z,98088.34
2022-12-31T03:43:57.254Z,98104.25
2022-12-31T03:46:24.473Z,98074.41
2022-12-31T03:48:52.012Z,98069.06
2022-12-31T03:51:19.180Z,98077.69
2022-12-31T03:53:46.671Z,98080.84
2022-12-31T03:56:13.917Z,98064.00
2022-12-31T03:58:41.449Z,98102.34
2022-12-31T04:01:08.772Z,98098.88
2022-12-31T04:03:36.350Z,98088.47
2022-12-31T04:06:03.689Z,98106.38
2022-12-31T04:08:31.246Z,98116.47
2022-12-31T04:10:58.583Z,98097.47
2022-12-31T04:13:26.113Z,98091.13
2022-12-31T04:15:53.546Z,98093.50
2022-12-31T04:18:21.053Z,98100.28
2022-12-31T04:20:48.337Z,98113.78
2022-12-31T04:23:15.830Z,98108.28
2022-12-31T04:25:43.193Z,98103.63
2022-12-31T04:28:10.699Z,98113.25
2022-12-31T04:30:37.955Z,98123.28
2022-12-31T04:33:05.442Z,98125.97
2022-12-31T04:35:32.720Z,98135.94
2022-12-31T04:38:00.251Z,98122.19
2022-12-31T04:40:27.474Z,98123.59
2022-12-31T04:42:54.989Z,98127.97
2022-12-31T04:45:22.294Z,98132.41
2022-12-31T04:47:49.826Z,98147.66
2022-12-31T04:50:17.094Z,98135.25
2022-12-31T04:52:44.586Z,98152.34
2022-12-31T04:55:12.029Z,98151.00
2022-12-31T04:57:41.544Z,98160.91
2022-12-31T05:00:09.608Z,98156.38
2022-12-31T05:02:37.380Z,98159.44
2022-12-31T05:05:05.239Z,98152.06
2022-12-31T05:07:32.764Z,98154.00
2022-12-31T05:09:59.977Z,98153.00
2022-12-31T05:12:27.552Z,98152.66
2022-12-31T05:14:54.806Z,98151.53
2022-12-31T05:17:22.329Z,98166.41
2022-12-31T05:19:49.540Z,98156.94
2022-12-31T05:22:29.103Z,98149.13
2022-12-31T05:25:00.920Z,98135.09
2022-12-31T05:27:31.224Z,98131.03
2022-12-31T05:29:59.174Z,98133.53
2022-12-31T05:32:26.985Z,98124.19
2022-12-31T05:34:54.296Z,98133.75
2022-12-31T05:37:21.821Z,98136.50
2022-12-31T05:39:49.299Z,98141.84
2022-12-31T05:42:16.853Z,98128.75
2022-12-31T05:44:44.436Z,98144.72
2022-12-31T05:47:12.004Z,98145.38
2022-12-31T05:49:39.537Z,98139.94
2022-12-31T05:52:07.615Z,98153.72
2022-12-31T05:54:34.985Z,98147.53
2022-12-31T05:57:03.953Z,98160.63
2022-12-31T05:59:31.258Z,98146.28
2022-12-31T06:01:58.846Z,98158.56
2022-12-31T06:04:26.391Z,98158.75
2022-12-31T06:06:54.093Z,98158.88
2022-12-31T06:09:21.977Z,98159.06
2022-12-31T06:11:50.054Z,98173.16
2022-12-31T06:14:17.411Z,98165.09
2022-12-31T06:16:44.953Z,98164.56
2022-12-31T06:19:12.219Z,98167.47
2022-12-31T06:21:39.770Z,98181.97
2022-12-31T06:24:07.597Z,98169.69
2022-12-31T06:26:35.180Z,98172.66
2022-12-31T06:29:02.505Z,98156.09
2022-12-31T06:31:30.123Z,98154.53
2022-12-31T06:33:57.478Z,98151.72
2022-12-31T06:36:25.124Z,98158.63
2022-12-31T06:38:52.522Z,98151.94
2022-12-31T06:41:20.138Z,98147.09
2022-12-31T06:43:47.582Z,98155.16
2022-12-31T06:46:18.026Z,98152.41
2022-12-31T06:48:45.578Z,98144.88
2022-12-31T06:51:17.856Z,98156.22
2022-12-31T06:53:50.961Z,98170.53
2022-12-31T06:56:23.358Z,98167.00
2022-12-31T06:58:53.189Z,98167.56
2022-12-31T07:01:58.031Z,98176.56
2022-12-31T07:04:49.783Z,98192.84
2022-12-31T07:07:39.367Z,98197.31
2022-12-31T07:10:29.475Z,98192.47
2022-12-31T07:13:47.259Z,98180.56
2022-12-31T07:16:43.793Z,98181.88
2022-12-31T07:19:19.935Z,98195.06
2022-12-31T07:21:51.626Z,98200.63
2022-12-31T07:24:19.695Z,98214.81
2022-12-31T07:27:08.453Z,98208.63
2022-12-31T07:30:12.165Z,98213.00
2022-12-31T07:33:09.843Z,98204.78
2022-12-31T07:36:36.856Z,98209.53
2022-12-31T07:39:20.462Z,98194.13
2022-12-31T07:42:21.188Z,98225.53
2022-12-31T07:45:07.702Z,98209.41
2022-12-31T07:47:35.656Z,98202.31
2022-12-31T07:50:03.972Z,98233.47
2022-12-31T07:52:31.991Z,98219.34
2022-12-31T07:54:59.275Z,98200.59
2022-12-31T07:57:38.704Z,98210.91
2022-12-31T08:00:14.377Z,98242.22
2022-12-31T08:03:03.293Z,98227.06
2022-12-31T08:05:54.866Z,98247.25
2022-12-31T08:08:50.154Z,98233.25
2022-12-31T08:11:43.285Z,98233.50
2022-12-31T08:14:14.828Z,98241.09
2022-12-31T08:16:42.732Z,98233.91
2022-12-31T08:19:25.745Z,98235.91
2022-12-31T08:22:03.865Z,98231.38
2022-12-31T08:25:05.124Z,98236.66
2022-12-31T08:28:36.864Z,98226.50
2022-12-31T08:31:37.527Z,98212.78
2022-12-31T08:34:38.102Z,98213.44
2022-12-31T08:37:23.911Z,98233.13
2022-12-31T08:40:33.792Z,98217.66
2022-12-31T08:43:49.683Z,98236.59
2022-12-31T08:46:31.455Z,98240.25
2022-12-31T08:48:59.507Z,98239.91
2022-12-31T08:51:27.654Z,98232.81
2022-12-31T08:53:55.773Z,98257.22
2022-12-31T08:56:51.150Z,98243.88
2022-12-31T08:59:43.230Z,98251.78
2022-12-31T09:02:43.211Z,98263.66
2022-12-31T09:05:38.570Z,98264.63
2022-12-31T09:08:08.569Z,98248.47
2022-12-31T09:10:56.844Z,98238.59
2022-12-31T09:13:46.182Z,98240.69
2022-12-31T09:16:26.222Z,98231.25
2022-12-31T09:18:53.511Z,98236.25
2022-12-31T09:21:21.411Z,98230.00
2022-12-31T09:23:49.041Z,98224.84
2022-12-31T09:26:34.835Z,98227.63
2022-12-31T09:29:53.846Z,98248.94
2022-12-31T09:33:01.266Z,98237.44
2022-12-31T09:36:00.412Z,98229.69
2022-12-31T09:38:55.530Z,98240.63
2022-12-31T09:42:08.955Z,98225.16
2022-12-31T09:45:28.629Z,98248.75
2022-12-31T09:48:01.760Z,98246.84
2022-12-31T09:50:59.553Z,98218.22
2022-12-31T09:53:30.984Z,98258.78
2022-12-31T09:56:10.154Z,98240.53
2022-12-31T09:58:57.319Z,98260.84
2022-12-31T10:01:38.017Z,98230.59
2022-12-31T10:04:10.697Z,98230.31
2022-12-31T10:07:00.707Z,98204.50
2022-12-31T10:09:50.418Z,98215.94
2022-12-31T10:13:10.349Z,98207.75
2022-12-31T10:16:11.146Z,98213.38
2022-12-31T10:18:50.407Z,98216.16
2022-12-31T10:21:54.092Z,98226.63
2022-12-31T10:25:38.639Z,98204.34
2022-12-31T10:28:31.310Z,98251.41
2022-12-31T10:31:22.633Z,98222.97
2022-12-31T10:34:13.103Z,98229.72
2022-12-31T10:37:12.800Z,98220.97
2022-12-31T10:40:15.939Z,98234.44
2022-12-31T10:43:28.029Z,98233.47
2022-12-31T10:46:39.712Z,98256.13
2022-12-31T10:49:38.185Z,98253.94
2022-12-31T10:52:28.503Z,98255.34
2022-12-31T10:55:21.666Z,98250.47
2022-12-31T10:58:06.694Z,98257.00
2022-12-31T11:01:25.045Z,98248.41
2022-12-31T11:04:36.417Z,98273.69
2022-12-31T11:07:32.194Z,98266.88
2022-12-31T11:10:40.137Z,98224.53
2022-12-31T11:13:31.646Z,98240.88
2022-12-31T11:16:26.526Z,98225.47
2022-12-31T11:19:41.461Z,98214.91
2022-12-31T11:22:26.351Z,98231.78
2022-12-31T11:25:12.003Z,98227.13
2022-12-31T11:28:02.462Z,98213.13
2022-12-31T11:30:57.577Z,98235.84
2022-12-31T11:33:54.694Z,98239.13
2022-12-31T11:37:00.248Z,98232.59
2022-12-31T11:40:02.945Z,98230.44
2022-12-31T11:42:54.574Z,98231.78
2022-12-31T11:46:08.595Z,98251.34
2022-12-31T11:48:55.483Z,98214.91
2022-12-31T11:51:50.376Z,98227.13
2022-12-31T11:54:53.190Z,98206.72
2022-12-31T11:57:34.507Z,98236.81
2022-12-31T12:00:21.817Z,98239.72
2022-12-31T12:03:06.037Z,98222.53
2022-12-31T12:05:36.582Z,98220.13
2022-12-31T12:08:04.143Z,98246.13
2022-12-31T12:10:49.861Z,98206.31
2022-12-31T12:13:26.065Z,98229.41
2022-12-31T12:16:02.090Z,98211.97
2022-12-31T12:18:45.227Z,98234.94
2022-12-31T12:21:16.712Z,98206.91
2022-12-31T12:23:59.535Z,98194.38
2022-12-31T12:26:43.269Z,98198.38
2022-12-31T12:29:28.359Z,98203.63
2022-12-31T12:32:05.995Z,98203.09
2022-12-31T12:34:45.887Z,98183.53
2022-12-31T12:37:35.567Z,98189.84
2022-12-31T12:40:29.814Z,98185.53
2022-12-31T12:42:59.283Z,98193.41
2022-12-31T12:45:50.788Z,98196.34
2022-12-31T12:48:46.411Z,98182.75
2022-12-31T12:51:31.573Z,98185.28
2022-12-31T12:55:05.045Z,98201.22
2022-12-31T12:58:06.373Z,98191.53
2022-12-31T13:00:51.896Z,98187.06
2022-12-31T13:04:14.724Z,98192.38
2022-12-31T13:07:11.181Z,98182.84
2022-12-31T13:10:14.813Z,98177.50
2022-12-31T13:16:50.995Z,98176.63
2022-12-31T13:19:44.598Z,98178.22
2022-12-31T13:22:32.498Z,98184.28
2022-12-31T13:25:35.271Z,98185.59
2022-12-31T13:28:12.039Z,98176.41
2022-12-31T13:30:48.650Z,98189.53
2022-12-31T13:33:27.165Z,98192.69
2022-12-31T13:36:03.202Z,98210.13
2022-12-31T13:38:46.227Z,98173.31
2022-12-31T13:41:36.629Z,98179.84
2022-12-31T13:44:23.971Z,98199.75
2022-12-31T13:47:23.224Z,98192.97
2022-12-31T13:50:02.825Z,98214.81
2022-12-31T13:52:58.710Z,98198.47
2022-12-31T13:55:37.992Z,98219.72
2022-12-31T13:58:32.232Z,98204.25
2022-12-31T14:01:33.621Z,98212.88
2022-12-31T14:04:15.429Z,98220.97
2022-12-31T14:06:57.598Z,98228.84
2022-12-31T14:09:35.493Z,98221.09
2022-12-31T14:12:25.883Z,98219.63
2022-12-31T14:15:20.466Z,98225.19
2022-12-31T14:17:59.343Z,98204.00
2022-12-31T14:20:41.521Z,98226.94
2022-12-31T14:23:39.059Z,98234.22
2022-12-31T14:26:27.688Z,98216.47
2022-12-31T14:29:19.145Z,98233.41
2022-12-31T14:31:49.491Z,98237.00
2022-12-31T14:35:06.246Z,98233.38
2022-12-31T14:38:03.215Z,98230.97
2022-12-31T14:41:14.152Z,98258.69
2022-12-31T14:44:20.105Z,98241.50
2022-12-31T14:47:20.505Z,98221.34
2022-12-31T14:50:16.271Z,98241.25
2022-12-31T14:52:54.395Z,98234.94
2022-12-31T14:55:35.607Z,98244.59
2022-12-31T14:58:29.785Z,98226.97
2022-12-31T15:01:22.318Z,98252.94
2022-12-31T15:03:50.710Z,98223.00
2022-12-31T15:06:21.212Z,98253.13
2022-12-31T15:09:28.500Z,98221.09
2022-12-31T15:12:25.293Z,98240.97
2022-12-31T15:15:33.270Z,98260.72
2022-12-31T15:18:38.701Z,98233.91
2022-12-31T15:21:13.935Z,98256.06
2022-12-31T15:23:44.244Z,98237.50
2022-12-31T15:26:27.761Z,98240.72
2022-12-31T15:29:06.497Z,98254.31
2022-12-31T15:31:46.678Z,98256.09
2022-12-31T15:34:36.086Z,98260.00
2022-12-31T15:37:42.790Z,98263.91
2022-12-31T15:40:16.347Z,98255.47
2022-12-31T15:43:03.150Z,98266.66
2022-12-31T15:45:42.935Z,98275.91
2022-12-31T15:48:26.380Z,98261.41
2022-12-31T15:51:00.675Z,98255.47
2022-12-31T15:53:40.433Z,98261.41
2022-12-31T15:56:17.913Z,98257.13
2022-12-31T15:58:49.679Z,98266.53
2022-12-31T16:01:25.546Z,98276.16
2022-12-31T16:04:01.981Z,98267.09
2022-12-31T16:06:37.159Z,98263.31
2022-12-31T16:09:16.371Z,98263.91
2022-12-31T16:11:44.657Z,98269.38
2022-12-31T16:14:25.456Z,98267.16
2022-12-31T16:17:00.002Z,98271.19
2022-12-31T16:19:44.737Z,98260.59
2022-12-31T16:22:25.988Z,98272.28
2022-12-31T16:27:44.914Z,98275.41
2022-12-31T16:30:23.095Z,98270.50
2022-12-31T16:32:52.869Z,98311.28
2022-12-31T16:35:29.693Z,98281.78
2022-12-31T16:38:16.756Z,98305.25
2022-12-31T16:41:19.355Z,98276.06
2022-12-31T16:43:50.446Z,98295.16
2022-12-31T16:46:27.192Z,98289.88
2022-12-31T16:49:03.039Z,98301.38
2022-12-31T16:51:34.093Z,98306.09
2022-12-31T16:54:03.674Z,98305.47
2022-12-31T16:56:38.054Z,98316.13
2022-12-31T16:59:38.930Z,98298.66
2022-12-31T17:02:40.529Z,98307.75
2022-12-31T17:05:24.646Z,98293.97
2022-12-31T17:07:52.673Z,98308.66
2022-12-31T17:10:33.272Z,98307.84
2022-12-31T17:15:52.844Z,98303.19
2022-12-31T17:18:28.839Z,98298.19
2022-12-31T17:21:08.435Z,98301.44
2022-12-31T17:23:39.921Z,98305.41
2022-12-31T17:26:22.186Z,98296.84
2022-12-31T17:28:53.493Z,98290.59
2022-12-31T17:31:34.245Z,98295.56
2022-12-31T17:34:20.808Z,98311.84
2022-12-31T17:37:19.823Z,98307.72
2022-12-31T17:39:54.245Z,98311.75
2022-12-31T17:42:33.705Z,98308.03
2022-12-31T17:45:07.656Z,98325.78
2022-12-31T17:47:45.576Z,98323.56
2022-12-31T17:50:15.589Z,98307.59
2022-12-31T17:52:43.170Z,98323.88
2022-12-31T17:55:10.461Z,98301.50
2022-12-31T17:57:43.161Z,98301.84
2022-12-31T18:00:22.390Z,98318.13
2022-12-31T18:02:49.970Z,98319.59
2022-12-31T18:05:21.045Z,98305.13
2022-12-31T18:07:49.092Z,98323.75
2022-12-31T18:10:19.448Z,98333.31
2022-12-31T18:12:49.409Z,98331.31
2022-12-31T18:15:20.514Z,98327.13
2022-12-31T18:17:49.182Z,98334.66
2022-12-31T18:20:17.784Z,98335.09
2022-12-31T18:22:46.029Z,98331.06
2022-12-31T18:25:22.730Z,98333.09
2022-12-31T18:27:52.199Z,98319.28
2022-12-31T18:30:19.660Z,98336.19
2022-12-31T18:32:47.433Z,98319.28
2022-12-31T18:35:57.673Z,98316.53
2022-12-31T18:38:16.024Z,98328.31
2022-12-31T18:40:55.594Z,98330.94
2022-12-31T18:43:24.290Z,98326.78
2022-12-31T18:45:52.784Z,98339.09
2022-12-31T18:48:20.929Z,98319.66
2022-12-31T18:50:48.940Z,98344.31
2022-12-31T18:53:23.099Z,98329.78
2022-12-31T18:55:56.454Z,98329.44
2022-12-31T18:58:24.660Z,98325.22
2022-12-31T19:00:52.294Z,98330.84
2022-12-31T19:03:23.894Z,98335.38
2022-12-31T19:05:52.086Z,98331.31
2022-12-31T19:08:24.251Z,98331.69
2022-12-31T19:10:53.832Z,98337.88
2022-12-31T19:13:23.036Z,98334.06
2022-12-31T19:15:53.171Z,98340.72
2022-12-31T19:18:21.201Z,98346.47
2022-12-31T19:20:48.574Z,98339.09
2022-12-31T19:23:20.511Z,98352.56
2022-12-31T19:25:49.795Z,98338.25
2022-12-31T19:28:24.305Z,98334.28
2022-12-31T19:30:52.898Z,98345.75
2022-12-31T19:33:20.891Z,98346.72
2022-12-31T19:35:48.651Z,98335.97
2022-12-31T19:38:26.447Z,98336.59
2022-12-31T19:40:54.997Z,98335.38
2022-12-31T19:43:24.135Z,98321.31
2022-12-31T19:45:52.758Z,98321.56
2022-12-31T19:48:30.476Z,98342.91
2022-12-31T19:50:59.696Z,98347.19
2022-12-31T19:53:27.966Z,98365.22
2022-12-31T19:55:55.364Z,98370.81
2022-12-31T19:58:26.324Z,98355.75
2022-12-31T20:01:01.958Z,98359.84
2022-12-31T20:03:32.672Z,98360.06
2022-12-31T20:06:09.927Z,98363.88
2022-12-31T20:08:38.909Z,98375.19
2022-12-31T20:11:12.826Z,98370.28
2022-12-31T20:13:41.438Z,98370.91
2022-12-31T20:16:20.605Z,98365.50
2022-12-31T20:18:50.592Z,98380.31
2022-12-31T20:21:37.060Z,98378.00
2022-12-31T20:24:05.006Z,98372.44
2022-12-31T20:26:32.282Z,98369.81
2022-12-31T20:28:59.880Z,98376.22
2022-12-31T20:31:27.384Z,98370.59
2022-12-31T20:33:55.702Z,98374.66
2022-12-31T20:36:23.685Z,98368.66
2022-12-31T20:38:51.324Z,98361.41
2022-12-31T20:41:22.154Z,98353.88
2022-12-31T20:43:50.949Z,98356.88
2022-12-31T20:46:25.108Z,98364.03
2022-12-31T20:48:57.868Z,98345.84
2022-12-31T20:51:27.131Z,98349.78
2022-12-31T20:54:04.970Z,98351.78
2022-12-31T20:56:35.349Z,98335.66
2022-12-31T20:59:04.551Z,98338.63
2022-12-31T21:01:55.502Z,98340.84
2022-12-31T21:04:20.512Z,98336.69
2022-12-31T21:06:48.184Z,98337.66
2022-12-31T21:09:15.837Z,98333.19
2022-12-31T21:12:01.609Z,98337.19
2022-12-31T21:14:29.202Z,98329.47
2022-12-31T21:16:56.479Z,98342.56
2022-12-31T21:19:24.044Z,98338.28
2022-12-31T21:21:51.425Z,98356.69
2022-12-31T21:24:23.494Z,98353.34
2022-12-31T21:26:54.739Z,98341.13
2022-12-31T21:29:22.434Z,98346.69
2022-12-31T21:31:50.052Z,98339.97
2022-12-31T21:34:18.868Z,98352.34
2022-12-31T21:36:46.074Z,98334.53
2022-12-31T21:39:13.710Z,98348.56
2022-12-31T21:41:53.405Z,98338.53
2022-12-31T21:44:26.532Z,98346.38
2022-12-31T21:47:38.219Z,98346.38
2022-12-31T21:50:07.705Z,98355.28
2022-12-31T21:52:35.255Z,98365.72
2022-12-31T21:55:24.671Z,98368.38
2022-12-31T21:58:25.437Z,98363.13
2022-12-31T22:00:59.285Z,98371.41
2022-12-31T22:03:28.040Z,98371.75
2022-12-31T22:06:16.342Z,98368.38
2022-12-31T22:08:51.756Z,98376.22
2022-12-31T22:11:22.608Z,98369.84
2022-12-31T22:13:51.281Z,98381.03
2022-12-31T22:16:20.335Z,98381.16
2022-12-31T22:18:48.550Z,98380.44
2022-12-31T22:21:22.456Z,98375.66
2022-12-31T22:23:55.905Z,98391.75
2022-12-31T22:26:28.221Z,98386.91
2022-12-31T22:28:59.788Z,98387.47
2022-12-31T22:31:30.334Z,98383.38
2022-12-31T22:33:58.883Z,98387.66
2022-12-31T22:36:26.889Z,98377.84
2022-12-31T22:38:58.646Z,98379.81
2022-12-31T22:41:28.525Z,98378.53
2022-12-31T22:44:03.718Z,98377.28
2022-12-31T22:46:33.931Z,98371.28
2022-12-31T22:49:04.328Z,98380.72
2022-12-31T22:51:57.163Z,98378.13
2022-12-31T22:54:20.588Z,98367.56
2022-12-31T22:56:48.192Z,98373.00
2022-12-31T22:59:15.448Z,98370.44
2022-12-31T23:01:43.085Z,98363.59
2022-12-31T23:04:10.497Z,98375.88
2022-12-31T23:06:47.370Z,98375.66
2022-12-31T23:09:35.493Z,98371.81
2022-12-31T23:12:08.430Z,98382.69
2022-12-31T23:14:54.833Z,98379.31
2022-12-31T23:17:45.400Z,98374.09
2022-12-31T23:20:36.585Z,98383.84
2022-12-31T23:23:10.546Z,98378.56
2022-12-31T23:25:47.856Z,98370.44
2022-12-31T23:28:25.746Z,98367.63
2022-12-31T23:30:54.178Z,98378.00
2022-12-31T23:33:26.129Z,98375.13
2022-12-31T23:36:07.282Z,98387.44
2022-12-31T23:38:35.283Z,98375.09
2022-12-31T23:41:13.508Z,98378.00
2022-12-31T23:43:41.119Z,98397.91
2022-12-31T23:46:08.539Z,98399.63
2022-12-31T23:48:36.121Z,98402.25
2022-12-31T23:51:04.025Z,98400.16
2022-12-31T23:53:31.860Z,98383.06
2022-12-31T23:56:23.382Z,98374.81
2022-12-31T23:58:56.312Z,98390.34
